sensor_id;sensor_type;location;lat;lon;timestamp;P1;durP1;ratioP1;P2;durP2;ratioP2
3769;SDS011;1900;48.890;9.190;2024-03-22T00:01:10;31.37;;;16.50;;
3769;SDS011;1900;48.890;9.190;2024-03-22T00:03:36;27.20;;;13.73;;
3769;SDS011;1900;48.890;9.190;2024-03-22T00:06:02;25.90;;;15.00;;
3769;SDS011;1900;48.890;9.190;2024-03-22T00:08:27;23.83;;;14.10;;
3769;SDS011;1900;48.890;9.190;2024-03-22T00:10:53;25.17;;;15.20;;
3769;SDS011;1900;48.890;9.190;2024-03-22T00:13:19;22.40;;;14.60;;
3769;SDS011;1900;48.890;9.190;2024-03-22T00:15:45;32.23;;;16.00;;
3769;SDS011;1900;48.890;9.190;2024-03-22T00:18:11;28.30;;;14.27;;
3769;SDS011;1900;48.890;9.190;2024-03-22T00:20:36;21.60;;;14.67;;
3769;SDS011;1900;48.890;9.190;2024-03-22T00:23:02;18.90;;;14.00;;
3769;SDS011;1900;48.890;9.190;2024-03-22T00:25:28;36.17;;;14.77;;
3769;SDS011;1900;48.890;9.190;2024-03-22T00:27:55;25.43;;;12.80;;
3769;SDS011;1900;48.890;9.190;2024-03-22T00:30:20;23.67;;;14.57;;
3769;SDS011;1900;48.890;9.190;2024-03-22T00:32:46;23.33;;;13.90;;
3769;SDS011;1900;48.890;9.190;2024-03-22T00:35:12;26.93;;;14.03;;
3769;SDS011;1900;48.890;9.190;2024-03-22T00:37:38;23.93;;;14.70;;
3769;SDS011;1900;48.890;9.190;2024-03-22T00:40:04;19.43;;;13.00;;
3769;SDS011;1900;48.890;9.190;2024-03-22T00:42:31;20.70;;;12.40;;
3769;SDS011;1900;48.890;9.190;2024-03-22T00:44:56;19.23;;;12.10;;
3769;SDS011;1900;48.890;9.190;2024-03-22T00:47:23;20.83;;;14.07;;
3769;SDS011;1900;48.890;9.190;2024-03-22T00:49:48;21.03;;;12.23;;
3769;SDS011;1900;48.890;9.190;2024-03-22T00:52:14;21.50;;;14.50;;
3769;SDS011;1900;48.890;9.190;2024-03-22T00:54:40;22.00;;;13.60;;
3769;SDS011;1900;48.890;9.190;2024-03-22T00:57:06;21.83;;;13.23;;
3769;SDS011;1900;48.890;9.190;2024-03-22T00:59:32;22.80;;;14.40;;
3769;SDS011;1900;48.890;9.190;2024-03-22T01:01:58;23.80;;;14.20;;
3769;SDS011;1900;48.890;9.190;2024-03-22T01:04:23;19.60;;;13.13;;
3769;SDS011;1900;48.890;9.190;2024-03-22T01:06:49;18.53;;;13.53;;
3769;SDS011;1900;48.890;9.190;2024-03-22T01:09:15;18.83;;;13.07;;
3769;SDS011;1900;48.890;9.190;2024-03-22T01:11:41;18.77;;;13.13;;
3769;SDS011;1900;48.890;9.190;2024-03-22T01:14:06;21.07;;;13.43;;
3769;SDS011;1900;48.890;9.190;2024-03-22T01:16:32;22.37;;;14.13;;
3769;SDS011;1900;48.890;9.190;2024-03-22T01:18:58;18.93;;;13.20;;
3769;SDS011;1900;48.890;9.190;2024-03-22T01:21:23;22.20;;;13.57;;
3769;SDS011;1900;48.890;9.190;2024-03-22T01:23:53;18.37;;;12.80;;
3769;SDS011;1900;48.890;9.190;2024-03-22T01:26:19;23.20;;;13.53;;
3769;SDS011;1900;48.890;9.190;2024-03-22T01:28:44;24.80;;;13.83;;
3769;SDS011;1900;48.890;9.190;2024-03-22T01:31:11;19.67;;;13.50;;
3769;SDS011;1900;48.890;9.190;2024-03-22T01:33:37;24.13;;;13.70;;
3769;SDS011;1900;48.890;9.190;2024-03-22T01:36:02;27.67;;;13.83;;
3769;SDS011;1900;48.890;9.190;2024-03-22T01:38:30;22.23;;;13.27;;
3769;SDS011;1900;48.890;9.190;2024-03-22T01:40:56;18.00;;;13.10;;
3769;SDS011;1900;48.890;9.190;2024-03-22T01:43:22;20.97;;;12.73;;
3769;SDS011;1900;48.890;9.190;2024-03-22T01:45:48;26.30;;;14.47;;
3769;SDS011;1900;48.890;9.190;2024-03-22T01:48:13;25.73;;;15.00;;
3769;SDS011;1900;48.890;9.190;2024-03-22T01:50:39;25.27;;;14.57;;
3769;SDS011;1900;48.890;9.190;2024-03-22T01:53:06;24.50;;;13.90;;
3769;SDS011;1900;48.890;9.190;2024-03-22T01:55:32;20.87;;;14.10;;
3769;SDS011;1900;48.890;9.190;2024-03-22T01:57:57;17.80;;;13.30;;
3769;SDS011;1900;48.890;9.190;2024-03-22T02:00:24;23.00;;;14.77;;
3769;SDS011;1900;48.890;9.190;2024-03-22T02:02:49;29.90;;;15.10;;
3769;SDS011;1900;48.890;9.190;2024-03-22T02:05:15;21.93;;;14.40;;
3769;SDS011;1900;48.890;9.190;2024-03-22T02:07:44;25.60;;;14.33;;
3769;SDS011;1900;48.890;9.190;2024-03-22T02:10:11;21.90;;;14.50;;
3769;SDS011;1900;48.890;9.190;2024-03-22T02:12:38;21.60;;;13.00;;
3769;SDS011;1900;48.890;9.190;2024-03-22T02:15:04;24.33;;;14.10;;
3769;SDS011;1900;48.890;9.190;2024-03-22T02:17:31;19.13;;;13.60;;
3769;SDS011;1900;48.890;9.190;2024-03-22T02:19:57;23.37;;;13.07;;
3769;SDS011;1900;48.890;9.190;2024-03-22T02:22:23;24.43;;;14.23;;
3769;SDS011;1900;48.890;9.190;2024-03-22T02:24:49;22.87;;;13.70;;
3769;SDS011;1900;48.890;9.190;2024-03-22T02:27:14;18.57;;;12.43;;
3769;SDS011;1900;48.890;9.190;2024-03-22T02:29:40;33.13;;;12.77;;
3769;SDS011;1900;48.890;9.190;2024-03-22T02:32:06;22.30;;;12.30;;
3769;SDS011;1900;48.890;9.190;2024-03-22T02:34:31;20.23;;;12.97;;
3769;SDS011;1900;48.890;9.190;2024-03-22T02:36:57;16.60;;;11.80;;
3769;SDS011;1900;48.890;9.190;2024-03-22T02:39:23;19.07;;;11.77;;
3769;SDS011;1900;48.890;9.190;2024-03-22T02:41:50;24.10;;;11.87;;
3769;SDS011;1900;48.890;9.190;2024-03-22T02:44:16;23.23;;;13.73;;
3769;SDS011;1900;48.890;9.190;2024-03-22T02:46:42;21.73;;;12.20;;
3769;SDS011;1900;48.890;9.190;2024-03-22T02:49:07;21.17;;;13.00;;
3769;SDS011;1900;48.890;9.190;2024-03-22T02:51:33;23.00;;;13.17;;
3769;SDS011;1900;48.890;9.190;2024-03-22T02:53:58;19.57;;;13.07;;
3769;SDS011;1900;48.890;9.190;2024-03-22T02:56:24;23.30;;;13.00;;
3769;SDS011;1900;48.890;9.190;2024-03-22T02:58:50;19.53;;;12.17;;
3769;SDS011;1900;48.890;9.190;2024-03-22T03:01:15;31.43;;;15.20;;
3769;SDS011;1900;48.890;9.190;2024-03-22T03:03:41;25.80;;;13.17;;
3769;SDS011;1900;48.890;9.190;2024-03-22T03:06:07;21.63;;;14.03;;
3769;SDS011;1900;48.890;9.190;2024-03-22T03:08:33;20.97;;;13.77;;
3769;SDS011;1900;48.890;9.190;2024-03-22T03:10:59;19.63;;;12.37;;
3769;SDS011;1900;48.890;9.190;2024-03-22T03:13:25;22.50;;;12.97;;
3769;SDS011;1900;48.890;9.190;2024-03-22T03:15:51;23.60;;;14.50;;
3769;SDS011;1900;48.890;9.190;2024-03-22T03:18:16;25.50;;;13.20;;
3769;SDS011;1900;48.890;9.190;2024-03-22T03:20:43;25.83;;;14.03;;
3769;SDS011;1900;48.890;9.190;2024-03-22T03:23:08;26.47;;;14.83;;
3769;SDS011;1900;48.890;9.190;2024-03-22T03:25:34;27.33;;;16.10;;
3769;SDS011;1900;48.890;9.190;2024-03-22T03:28:00;21.60;;;15.10;;
3769;SDS011;1900;48.890;9.190;2024-03-22T03:30:25;22.93;;;15.00;;
3769;SDS011;1900;48.890;9.190;2024-03-22T03:32:51;33.13;;;15.20;;
3769;SDS011;1900;48.890;9.190;2024-03-22T03:35:17;24.53;;;15.20;;
3769;SDS011;1900;48.890;9.190;2024-03-22T03:37:42;24.87;;;14.90;;
3769;SDS011;1900;48.890;9.190;2024-03-22T03:40:08;23.17;;;15.23;;
3769;SDS011;1900;48.890;9.190;2024-03-22T03:42:34;27.73;;;15.37;;
3769;SDS011;1900;48.890;9.190;2024-03-22T03:44:59;21.50;;;14.67;;
3769;SDS011;1900;48.890;9.190;2024-03-22T03:47:25;25.43;;;14.47;;
3769;SDS011;1900;48.890;9.190;2024-03-22T03:49:51;30.93;;;16.57;;
3769;SDS011;1900;48.890;9.190;2024-03-22T03:52:17;25.43;;;15.50;;
3769;SDS011;1900;48.890;9.190;2024-03-22T03:54:43;23.87;;;14.50;;
3769;SDS011;1900;48.890;9.190;2024-03-22T03:57:08;24.33;;;14.77;;
3769;SDS011;1900;48.890;9.190;2024-03-22T03:59:34;24.20;;;15.07;;
3769;SDS011;1900;48.890;9.190;2024-03-22T04:02:00;22.90;;;14.53;;
3769;SDS011;1900;48.890;9.190;2024-03-22T04:04:26;23.40;;;15.00;;
3769;SDS011;1900;48.890;9.190;2024-03-22T04:06:51;25.80;;;15.20;;
3769;SDS011;1900;48.890;9.190;2024-03-22T04:09:17;25.30;;;15.00;;
3769;SDS011;1900;48.890;9.190;2024-03-22T04:11:43;24.20;;;14.87;;
3769;SDS011;1900;48.890;9.190;2024-03-22T04:14:09;23.33;;;13.87;;
3769;SDS011;1900;48.890;9.190;2024-03-22T04:16:34;29.50;;;15.60;;
3769;SDS011;1900;48.890;9.190;2024-03-22T04:19:01;20.97;;;13.83;;
3769;SDS011;1900;48.890;9.190;2024-03-22T04:21:26;24.50;;;15.33;;
3769;SDS011;1900;48.890;9.190;2024-03-22T04:23:52;24.07;;;14.80;;
3769;SDS011;1900;48.890;9.190;2024-03-22T04:26:18;28.93;;;15.90;;
3769;SDS011;1900;48.890;9.190;2024-03-22T04:28:43;24.47;;;14.83;;
3769;SDS011;1900;48.890;9.190;2024-03-22T04:31:09;25.00;;;15.77;;
3769;SDS011;1900;48.890;9.190;2024-03-22T04:33:35;21.77;;;15.33;;
3769;SDS011;1900;48.890;9.190;2024-03-22T04:36:02;27.33;;;15.47;;
3769;SDS011;1900;48.890;9.190;2024-03-22T04:38:28;20.30;;;13.53;;
3769;SDS011;1900;48.890;9.190;2024-03-22T04:40:54;21.73;;;14.37;;
3769;SDS011;1900;48.890;9.190;2024-03-22T04:43:21;26.70;;;14.77;;
3769;SDS011;1900;48.890;9.190;2024-03-22T04:45:50;22.83;;;14.27;;
3769;SDS011;1900;48.890;9.190;2024-03-22T04:48:18;20.73;;;14.17;;
3769;SDS011;1900;48.890;9.190;2024-03-22T04:50:45;24.20;;;15.07;;
3769;SDS011;1900;48.890;9.190;2024-03-22T04:53:13;22.50;;;13.87;;
3769;SDS011;1900;48.890;9.190;2024-03-22T04:55:39;30.23;;;14.63;;
3769;SDS011;1900;48.890;9.190;2024-03-22T04:58:10;21.30;;;13.13;;
3769;SDS011;1900;48.890;9.190;2024-03-22T05:00:38;22.00;;;14.23;;
3769;SDS011;1900;48.890;9.190;2024-03-22T05:03:06;19.83;;;13.97;;
3769;SDS011;1900;48.890;9.190;2024-03-22T05:05:31;25.50;;;14.30;;
3769;SDS011;1900;48.890;9.190;2024-03-22T05:07:57;23.70;;;14.50;;
3769;SDS011;1900;48.890;9.190;2024-03-22T05:10:23;24.50;;;14.60;;
3769;SDS011;1900;48.890;9.190;2024-03-22T05:12:49;22.67;;;14.37;;
3769;SDS011;1900;48.890;9.190;2024-03-22T05:15:14;22.60;;;14.50;;
3769;SDS011;1900;48.890;9.190;2024-03-22T05:17:40;23.80;;;14.40;;
3769;SDS011;1900;48.890;9.190;2024-03-22T05:20:08;20.00;;;14.47;;
3769;SDS011;1900;48.890;9.190;2024-03-22T05:22:39;25.17;;;14.53;;
3769;SDS011;1900;48.890;9.190;2024-03-22T05:25:04;22.00;;;13.63;;
3769;SDS011;1900;48.890;9.190;2024-03-22T05:27:31;24.10;;;14.00;;
3769;SDS011;1900;48.890;9.190;2024-03-22T05:29:58;23.23;;;13.70;;
3769;SDS011;1900;48.890;9.190;2024-03-22T05:32:24;24.80;;;13.77;;
3769;SDS011;1900;48.890;9.190;2024-03-22T05:34:50;21.37;;;13.70;;
3769;SDS011;1900;48.890;9.190;2024-03-22T05:37:16;24.70;;;14.23;;
3769;SDS011;1900;48.890;9.190;2024-03-22T05:39:42;22.30;;;12.67;;
3769;SDS011;1900;48.890;9.190;2024-03-22T05:42:11;21.03;;;13.60;;
3769;SDS011;1900;48.890;9.190;2024-03-22T05:44:36;25.53;;;13.40;;
3769;SDS011;1900;48.890;9.190;2024-03-22T05:47:02;19.60;;;12.93;;
3769;SDS011;1900;48.890;9.190;2024-03-22T05:49:28;22.00;;;14.03;;
3769;SDS011;1900;48.890;9.190;2024-03-22T05:51:54;26.03;;;14.37;;
3769;SDS011;1900;48.890;9.190;2024-03-22T05:54:20;19.10;;;12.60;;
3769;SDS011;1900;48.890;9.190;2024-03-22T05:56:46;20.40;;;12.90;;
3769;SDS011;1900;48.890;9.190;2024-03-22T05:59:12;23.63;;;14.07;;
3769;SDS011;1900;48.890;9.190;2024-03-22T06:01:37;19.80;;;13.10;;
3769;SDS011;1900;48.890;9.190;2024-03-22T06:04:04;23.60;;;12.80;;
3769;SDS011;1900;48.890;9.190;2024-03-22T06:06:34;22.73;;;13.33;;
3769;SDS011;1900;48.890;9.190;2024-03-22T06:09:00;23.60;;;12.73;;
3769;SDS011;1900;48.890;9.190;2024-03-22T06:11:29;24.70;;;14.00;;
3769;SDS011;1900;48.890;9.190;2024-03-22T06:13:55;23.40;;;13.90;;
3769;SDS011;1900;48.890;9.190;2024-03-22T06:16:21;20.67;;;14.10;;
3769;SDS011;1900;48.890;9.190;2024-03-22T06:18:47;26.60;;;13.90;;
3769;SDS011;1900;48.890;9.190;2024-03-22T06:21:13;24.90;;;15.57;;
3769;SDS011;1900;48.890;9.190;2024-03-22T06:23:48;22.03;;;14.47;;
3769;SDS011;1900;48.890;9.190;2024-03-22T06:26:15;26.10;;;14.27;;
3769;SDS011;1900;48.890;9.190;2024-03-22T06:28:41;22.60;;;13.30;;
3769;SDS011;1900;48.890;9.190;2024-03-22T06:31:06;25.30;;;12.70;;
3769;SDS011;1900;48.890;9.190;2024-03-22T06:33:33;23.77;;;14.00;;
3769;SDS011;1900;48.890;9.190;2024-03-22T06:35:58;24.27;;;14.87;;
3769;SDS011;1900;48.890;9.190;2024-03-22T06:38:25;20.73;;;13.73;;
3769;SDS011;1900;48.890;9.190;2024-03-22T06:40:51;26.93;;;14.13;;
3769;SDS011;1900;48.890;9.190;2024-03-22T06:43:16;27.60;;;14.27;;
3769;SDS011;1900;48.890;9.190;2024-03-22T06:45:42;24.63;;;12.47;;
3769;SDS011;1900;48.890;9.190;2024-03-22T06:48:08;22.40;;;14.77;;
3769;SDS011;1900;48.890;9.190;2024-03-22T06:50:33;21.03;;;13.70;;
3769;SDS011;1900;48.890;9.190;2024-03-22T06:52:59;19.60;;;13.90;;
3769;SDS011;1900;48.890;9.190;2024-03-22T06:55:25;22.03;;;13.40;;
3769;SDS011;1900;48.890;9.190;2024-03-22T06:57:50;17.73;;;12.70;;
3769;SDS011;1900;48.890;9.190;2024-03-22T07:00:17;29.10;;;14.03;;
3769;SDS011;1900;48.890;9.190;2024-03-22T07:03:06;23.60;;;12.97;;
3769;SDS011;1900;48.890;9.190;2024-03-22T07:05:31;22.93;;;12.63;;
3769;SDS011;1900;48.890;9.190;2024-03-22T07:07:57;23.53;;;14.40;;
3769;SDS011;1900;48.890;9.190;2024-03-22T07:10:23;23.73;;;13.43;;
3769;SDS011;1900;48.890;9.190;2024-03-22T07:12:55;18.80;;;13.07;;
3769;SDS011;1900;48.890;9.190;2024-03-22T07:15:23;27.53;;;13.80;;
3769;SDS011;1900;48.890;9.190;2024-03-22T07:17:49;19.20;;;13.63;;
3769;SDS011;1900;48.890;9.190;2024-03-22T07:20:15;21.60;;;13.50;;
3769;SDS011;1900;48.890;9.190;2024-03-22T07:22:41;26.13;;;14.47;;
3769;SDS011;1900;48.890;9.190;2024-03-22T07:25:07;25.47;;;12.50;;
3769;SDS011;1900;48.890;9.190;2024-03-22T07:27:36;20.90;;;12.97;;
3769;SDS011;1900;48.890;9.190;2024-03-22T07:30:02;29.97;;;14.07;;
3769;SDS011;1900;48.890;9.190;2024-03-22T07:32:28;20.33;;;13.30;;
3769;SDS011;1900;48.890;9.190;2024-03-22T07:34:55;24.33;;;14.10;;
3769;SDS011;1900;48.890;9.190;2024-03-22T07:37:20;25.70;;;12.70;;
3769;SDS011;1900;48.890;9.190;2024-03-22T07:39:46;20.07;;;13.60;;
3769;SDS011;1900;48.890;9.190;2024-03-22T07:42:12;31.07;;;15.10;;
3769;SDS011;1900;48.890;9.190;2024-03-22T07:44:38;21.83;;;13.23;;
3769;SDS011;1900;48.890;9.190;2024-03-22T07:47:04;18.17;;;13.30;;
3769;SDS011;1900;48.890;9.190;2024-03-22T07:49:30;27.27;;;14.03;;
3769;SDS011;1900;48.890;9.190;2024-03-22T07:51:56;24.40;;;13.27;;
3769;SDS011;1900;48.890;9.190;2024-03-22T07:54:22;20.23;;;13.37;;
3769;SDS011;1900;48.890;9.190;2024-03-22T07:56:48;27.40;;;13.57;;
3769;SDS011;1900;48.890;9.190;2024-03-22T07:59:13;20.40;;;13.53;;
3769;SDS011;1900;48.890;9.190;2024-03-22T08:01:39;21.30;;;13.07;;
3769;SDS011;1900;48.890;9.190;2024-03-22T08:04:05;22.37;;;12.70;;
3769;SDS011;1900;48.890;9.190;2024-03-22T08:06:31;18.50;;;12.33;;
3769;SDS011;1900;48.890;9.190;2024-03-22T08:08:56;26.53;;;12.17;;
3769;SDS011;1900;48.890;9.190;2024-03-22T08:11:23;21.07;;;12.40;;
3769;SDS011;1900;48.890;9.190;2024-03-22T08:13:48;17.43;;;11.73;;
3769;SDS011;1900;48.890;9.190;2024-03-22T08:16:14;19.77;;;10.60;;
3769;SDS011;1900;48.890;9.190;2024-03-22T08:18:40;22.70;;;12.73;;
3769;SDS011;1900;48.890;9.190;2024-03-22T08:21:06;18.60;;;12.13;;
3769;SDS011;1900;48.890;9.190;2024-03-22T08:23:31;19.13;;;12.40;;
3769;SDS011;1900;48.890;9.190;2024-03-22T08:25:58;19.30;;;11.20;;
3769;SDS011;1900;48.890;9.190;2024-03-22T08:28:23;28.47;;;11.50;;
3769;SDS011;1900;48.890;9.190;2024-03-22T08:30:49;19.70;;;11.93;;
3769;SDS011;1900;48.890;9.190;2024-03-22T08:33:15;17.17;;;12.40;;
3769;SDS011;1900;48.890;9.190;2024-03-22T08:35:41;17.30;;;11.30;;
3769;SDS011;1900;48.890;9.190;2024-03-22T08:38:06;27.93;;;12.63;;
3769;SDS011;1900;48.890;9.190;2024-03-22T08:40:38;20.93;;;12.40;;
3769;SDS011;1900;48.890;9.190;2024-03-22T08:43:04;20.03;;;12.07;;
3769;SDS011;1900;48.890;9.190;2024-03-22T08:45:32;17.70;;;10.90;;
3769;SDS011;1900;48.890;9.190;2024-03-22T08:47:58;17.63;;;11.30;;
3769;SDS011;1900;48.890;9.190;2024-03-22T08:50:24;19.53;;;10.73;;
3769;SDS011;1900;48.890;9.190;2024-03-22T08:52:50;18.77;;;10.63;;
3769;SDS011;1900;48.890;9.190;2024-03-22T08:55:16;17.70;;;10.27;;
3769;SDS011;1900;48.890;9.190;2024-03-22T08:57:42;15.67;;;10.33;;
3769;SDS011;1900;48.890;9.190;2024-03-22T09:00:08;25.73;;;10.00;;
3769;SDS011;1900;48.890;9.190;2024-03-22T09:02:36;23.40;;;10.10;;
3769;SDS011;1900;48.890;9.190;2024-03-22T09:05:03;14.13;;;9.47;;
3769;SDS011;1900;48.890;9.190;2024-03-22T09:07:33;16.37;;;10.30;;
3769;SDS011;1900;48.890;9.190;2024-03-22T09:10:05;22.80;;;9.47;;
3769;SDS011;1900;48.890;9.190;2024-03-22T09:12:31;15.13;;;9.90;;
3769;SDS011;1900;48.890;9.190;2024-03-22T09:14:57;12.43;;;9.47;;
3769;SDS011;1900;48.890;9.190;2024-03-22T09:17:23;19.73;;;10.67;;
3769;SDS011;1900;48.890;9.190;2024-03-22T09:19:48;17.80;;;9.73;;
3769;SDS011;1900;48.890;9.190;2024-03-22T09:22:14;14.20;;;9.93;;
3769;SDS011;1900;48.890;9.190;2024-03-22T09:24:40;14.20;;;9.33;;
3769;SDS011;1900;48.890;9.190;2024-03-22T09:27:06;16.83;;;9.30;;
3769;SDS011;1900;48.890;9.190;2024-03-22T09:29:38;14.57;;;8.60;;
3769;SDS011;1900;48.890;9.190;2024-03-22T09:32:04;12.90;;;8.57;;
3769;SDS011;1900;48.890;9.190;2024-03-22T09:34:30;13.67;;;8.70;;
3769;SDS011;1900;48.890;9.190;2024-03-22T09:36:56;11.70;;;8.43;;
3769;SDS011;1900;48.890;9.190;2024-03-22T09:39:22;12.73;;;7.80;;
3769;SDS011;1900;48.890;9.190;2024-03-22T09:41:50;13.83;;;8.13;;
3769;SDS011;1900;48.890;9.190;2024-03-22T09:44:17;13.10;;;8.20;;
3769;SDS011;1900;48.890;9.190;2024-03-22T09:46:44;11.60;;;7.47;;
3769;SDS011;1900;48.890;9.190;2024-03-22T09:49:12;13.70;;;8.30;;
3769;SDS011;1900;48.890;9.190;2024-03-22T09:51:41;8.50;;;6.27;;
3769;SDS011;1900;48.890;9.190;2024-03-22T09:54:11;11.50;;;6.57;;
3769;SDS011;1900;48.890;9.190;2024-03-22T09:56:40;20.10;;;9.10;;
3769;SDS011;1900;48.890;9.190;2024-03-22T09:59:07;11.87;;;7.10;;
3769;SDS011;1900;48.890;9.190;2024-03-22T10:01:37;11.30;;;7.67;;
3769;SDS011;1900;48.890;9.190;2024-03-22T10:04:04;11.10;;;6.40;;
3769;SDS011;1900;48.890;9.190;2024-03-22T10:06:30;18.93;;;12.33;;
3769;SDS011;1900;48.890;9.190;2024-03-22T10:08:59;10.77;;;7.10;;
3769;SDS011;1900;48.890;9.190;2024-03-22T10:11:29;16.13;;;6.00;;
3769;SDS011;1900;48.890;9.190;2024-03-22T10:13:56;16.80;;;6.07;;
3769;SDS011;1900;48.890;9.190;2024-03-22T10:16:22;7.20;;;6.10;;
3769;SDS011;1900;48.890;9.190;2024-03-22T10:18:47;14.50;;;7.43;;
3769;SDS011;1900;48.890;9.190;2024-03-22T10:21:16;10.30;;;7.33;;
3769;SDS011;1900;48.890;9.190;2024-03-22T10:23:46;8.73;;;6.63;;
3769;SDS011;1900;48.890;9.190;2024-03-22T10:26:13;13.40;;;7.07;;
3769;SDS011;1900;48.890;9.190;2024-03-22T10:28:45;12.20;;;7.33;;
3769;SDS011;1900;48.890;9.190;2024-03-22T10:31:12;11.23;;;6.53;;
3769;SDS011;1900;48.890;9.190;2024-03-22T10:33:40;10.30;;;6.50;;
3769;SDS011;1900;48.890;9.190;2024-03-22T10:36:07;10.93;;;6.33;;
3769;SDS011;1900;48.890;9.190;2024-03-22T10:38:33;6.80;;;5.57;;
3769;SDS011;1900;48.890;9.190;2024-03-22T10:41:03;10.70;;;6.07;;
3769;SDS011;1900;48.890;9.190;2024-03-22T10:43:30;10.57;;;6.43;;
3769;SDS011;1900;48.890;9.190;2024-03-22T10:45:58;13.90;;;7.57;;
3769;SDS011;1900;48.890;9.190;2024-03-22T10:48:28;16.17;;;6.17;;
3769;SDS011;1900;48.890;9.190;2024-03-22T10:50:59;12.73;;;7.07;;
3769;SDS011;1900;48.890;9.190;2024-03-22T10:53:27;10.27;;;5.67;;
3769;SDS011;1900;48.890;9.190;2024-03-22T10:55:56;10.67;;;7.57;;
3769;SDS011;1900;48.890;9.190;2024-03-22T10:58:25;11.10;;;6.57;;
3769;SDS011;1900;48.890;9.190;2024-03-22T11:00:51;13.60;;;6.73;;
3769;SDS011;1900;48.890;9.190;2024-03-22T11:03:20;11.37;;;6.87;;
3769;SDS011;1900;48.890;9.190;2024-03-22T11:05:53;10.73;;;7.40;;
3769;SDS011;1900;48.890;9.190;2024-03-22T11:08:24;13.50;;;6.17;;
3769;SDS011;1900;48.890;9.190;2024-03-22T11:10:54;10.57;;;6.27;;
3769;SDS011;1900;48.890;9.190;2024-03-22T11:13:21;13.20;;;6.47;;
3769;SDS011;1900;48.890;9.190;2024-03-22T11:15:50;10.97;;;7.20;;
3769;SDS011;1900;48.890;9.190;2024-03-22T11:18:16;13.00;;;6.70;;
3769;SDS011;1900;48.890;9.190;2024-03-22T11:20:43;15.80;;;6.80;;
3769;SDS011;1900;48.890;9.190;2024-03-22T11:23:11;8.33;;;6.50;;
3769;SDS011;1900;48.890;9.190;2024-03-22T11:25:37;8.33;;;6.57;;
3769;SDS011;1900;48.890;9.190;2024-03-22T11:28:03;7.50;;;6.40;;
3769;SDS011;1900;48.890;9.190;2024-03-22T11:30:29;13.33;;;6.43;;
3769;SDS011;1900;48.890;9.190;2024-03-22T11:32:57;11.87;;;6.77;;
3769;SDS011;1900;48.890;9.190;2024-03-22T11:35:25;10.47;;;6.70;;
3769;SDS011;1900;48.890;9.190;2024-03-22T11:37:51;10.10;;;6.33;;
3769;SDS011;1900;48.890;9.190;2024-03-22T11:40:17;9.80;;;6.40;;
3769;SDS011;1900;48.890;9.190;2024-03-22T11:42:52;9.33;;;5.50;;
3769;SDS011;1900;48.890;9.190;2024-03-22T11:45:20;13.50;;;6.07;;
3769;SDS011;1900;48.890;9.190;2024-03-22T11:47:48;8.10;;;5.63;;
3769;SDS011;1900;48.890;9.190;2024-03-22T11:50:14;9.83;;;6.30;;
3769;SDS011;1900;48.890;9.190;2024-03-22T11:52:40;7.90;;;5.77;;
3769;SDS011;1900;48.890;9.190;2024-03-22T11:55:06;8.40;;;5.70;;
3769;SDS011;1900;48.890;9.190;2024-03-22T11:57:32;9.60;;;5.70;;
3769;SDS011;1900;48.890;9.190;2024-03-22T11:59:59;6.23;;;4.63;;
3769;SDS011;1900;48.890;9.190;2024-03-22T12:02:26;10.57;;;5.23;;
3769;SDS011;1900;48.890;9.190;2024-03-22T12:04:51;9.87;;;5.70;;
3769;SDS011;1900;48.890;9.190;2024-03-22T12:07:17;10.70;;;6.40;;
3769;SDS011;1900;48.890;9.190;2024-03-22T12:09:43;9.00;;;6.10;;
3769;SDS011;1900;48.890;9.190;2024-03-22T12:12:11;11.17;;;5.60;;
3769;SDS011;1900;48.890;9.190;2024-03-22T12:14:38;8.57;;;5.40;;
3769;SDS011;1900;48.890;9.190;2024-03-22T12:17:07;9.90;;;4.70;;
3769;SDS011;1900;48.890;9.190;2024-03-22T12:19:33;11.13;;;6.60;;
3769;SDS011;1900;48.890;9.190;2024-03-22T12:22:00;9.13;;;6.07;;
3769;SDS011;1900;48.890;9.190;2024-03-22T12:24:26;11.07;;;5.40;;
3769;SDS011;1900;48.890;9.190;2024-03-22T12:26:54;6.07;;;5.33;;
3769;SDS011;1900;48.890;9.190;2024-03-22T12:29:20;8.93;;;5.50;;
3769;SDS011;1900;48.890;9.190;2024-03-22T12:31:46;8.80;;;4.83;;
3769;SDS011;1900;48.890;9.190;2024-03-22T12:34:12;10.93;;;4.53;;
3769;SDS011;1900;48.890;9.190;2024-03-22T12:36:38;6.37;;;5.20;;
3769;SDS011;1900;48.890;9.190;2024-03-22T12:39:04;11.63;;;5.43;;
3769;SDS011;1900;48.890;9.190;2024-03-22T12:41:30;8.93;;;5.10;;
3769;SDS011;1900;48.890;9.190;2024-03-22T12:43:58;11.60;;;4.43;;
3769;SDS011;1900;48.890;9.190;2024-03-22T12:46:24;5.90;;;4.63;;
3769;SDS011;1900;48.890;9.190;2024-03-22T12:48:51;10.40;;;5.40;;
3769;SDS011;1900;48.890;9.190;2024-03-22T12:51:17;7.00;;;4.37;;
3769;SDS011;1900;48.890;9.190;2024-03-22T12:53:42;7.03;;;4.13;;
3769;SDS011;1900;48.890;9.190;2024-03-22T12:56:08;11.67;;;5.30;;
3769;SDS011;1900;48.890;9.190;2024-03-22T12:58:34;8.83;;;4.40;;
3769;SDS011;1900;48.890;9.190;2024-03-22T13:01:00;10.67;;;6.10;;
3769;SDS011;1900;48.890;9.190;2024-03-22T13:03:27;6.27;;;5.30;;
3769;SDS011;1900;48.890;9.190;2024-03-22T13:05:55;5.93;;;4.10;;
3769;SDS011;1900;48.890;9.190;2024-03-22T13:08:21;6.00;;;5.03;;
3769;SDS011;1900;48.890;9.190;2024-03-22T13:10:46;5.50;;;3.80;;
3769;SDS011;1900;48.890;9.190;2024-03-22T13:13:13;6.60;;;4.17;;
3769;SDS011;1900;48.890;9.190;2024-03-22T13:15:41;7.93;;;4.20;;
3769;SDS011;1900;48.890;9.190;2024-03-22T13:18:09;4.80;;;3.97;;
3769;SDS011;1900;48.890;9.190;2024-03-22T13:20:35;5.27;;;4.20;;
3769;SDS011;1900;48.890;9.190;2024-03-22T13:23:01;9.40;;;5.03;;
3769;SDS011;1900;48.890;9.190;2024-03-22T13:25:27;7.90;;;4.80;;
3769;SDS011;1900;48.890;9.190;2024-03-22T13:27:53;13.97;;;4.80;;
3769;SDS011;1900;48.890;9.190;2024-03-22T13:30:19;10.80;;;4.90;;
3769;SDS011;1900;48.890;9.190;2024-03-22T13:32:45;7.20;;;4.30;;
3769;SDS011;1900;48.890;9.190;2024-03-22T13:35:11;8.60;;;4.10;;
3769;SDS011;1900;48.890;9.190;2024-03-22T13:37:36;13.27;;;5.03;;
3769;SDS011;1900;48.890;9.190;2024-03-22T13:40:02;8.63;;;4.47;;
3769;SDS011;1900;48.890;9.190;2024-03-22T13:42:28;7.50;;;3.90;;
3769;SDS011;1900;48.890;9.190;2024-03-22T13:44:55;7.93;;;3.73;;
3769;SDS011;1900;48.890;9.190;2024-03-22T13:47:22;5.77;;;4.03;;
3769;SDS011;1900;48.890;9.190;2024-03-22T13:49:48;8.23;;;4.90;;
3769;SDS011;1900;48.890;9.190;2024-03-22T13:52:13;9.17;;;4.10;;
3769;SDS011;1900;48.890;9.190;2024-03-22T13:54:39;6.57;;;4.43;;
3769;SDS011;1900;48.890;9.190;2024-03-22T13:57:05;14.53;;;4.37;;
3769;SDS011;1900;48.890;9.190;2024-03-22T13:59:31;9.93;;;4.53;;
3769;SDS011;1900;48.890;9.190;2024-03-22T14:01:56;5.90;;;4.23;;
3769;SDS011;1900;48.890;9.190;2024-03-22T14:04:23;8.70;;;3.90;;
3769;SDS011;1900;48.890;9.190;2024-03-22T14:06:49;4.67;;;3.40;;
3769;SDS011;1900;48.890;9.190;2024-03-22T14:09:14;9.60;;;4.30;;
3769;SDS011;1900;48.890;9.190;2024-03-22T14:11:40;8.30;;;3.63;;
3769;SDS011;1900;48.890;9.190;2024-03-22T14:14:08;7.27;;;3.73;;
3769;SDS011;1900;48.890;9.190;2024-03-22T14:16:37;7.20;;;3.27;;
3769;SDS011;1900;48.890;9.190;2024-03-22T14:19:21;5.70;;;2.87;;
3769;SDS011;1900;48.890;9.190;2024-03-22T14:21:47;5.73;;;2.73;;
3769;SDS011;1900;48.890;9.190;2024-03-22T14:24:13;7.03;;;2.53;;
3769;SDS011;1900;48.890;9.190;2024-03-22T14:26:39;3.30;;;2.40;;
3769;SDS011;1900;48.890;9.190;2024-03-22T14:29:08;4.30;;;2.20;;
3769;SDS011;1900;48.890;9.190;2024-03-22T14:31:35;5.67;;;1.90;;
3769;SDS011;1900;48.890;9.190;2024-03-22T14:34:01;2.57;;;2.37;;
3769;SDS011;1900;48.890;9.190;2024-03-22T14:36:26;4.27;;;2.57;;
3769;SDS011;1900;48.890;9.190;2024-03-22T14:38:52;6.67;;;2.80;;
3769;SDS011;1900;48.890;9.190;2024-03-22T14:41:18;3.90;;;2.33;;
3769;SDS011;1900;48.890;9.190;2024-03-22T14:43:44;4.67;;;2.20;;
3769;SDS011;1900;48.890;9.190;2024-03-22T14:46:09;3.80;;;2.27;;
3769;SDS011;1900;48.890;9.190;2024-03-22T14:48:35;6.93;;;4.23;;
3769;SDS011;1900;48.890;9.190;2024-03-22T14:51:01;5.40;;;3.73;;